sensor_id;sensor_type;location;lat;lon;timestamp;P1;durP1;ratioP1;P2;durP2;ratioP2
77146;SDS011;66121;52.584;9.694;2023-02-22T00:00:07;26.20;;;11.48;;
77146;SDS011;66121;52.584;9.694;2023-02-22T00:02:49;25.50;;;10.90;;
77146;SDS011;66121;52.584;9.694;2023-02-22T00:05:15;28.25;;;11.00;;
77146;SDS011;66121;52.584;9.694;2023-02-22T00:07:44;28.23;;;11.63;;
77146;SDS011;66121;52.584;9.694;2023-02-22T00:10:10;27.95;;;12.38;;
77146;SDS011;66121;52.584;9.694;2023-02-22T00:12:39;25.63;;;11.23;;
77146;SDS011;66121;52.584;9.694;2023-02-22T00:15:05;25.75;;;11.63;;
77146;SDS011;66121;52.584;9.694;2023-02-22T00:17:31;32.80;;;13.52;;
77146;SDS011;66121;52.584;9.694;2023-02-22T00:19:56;30.90;;;11.90;;
77146;SDS011;66121;52.584;9.694;2023-02-22T00:22:22;33.33;;;12.83;;
77146;SDS011;66121;52.584;9.694;2023-02-22T00:24:47;38.53;;;14.97;;
77146;SDS011;66121;52.584;9.694;2023-02-22T00:27:12;37.55;;;13.88;;
77146;SDS011;66121;52.584;9.694;2023-02-22T00:29:37;32.08;;;14.10;;
77146;SDS011;66121;52.584;9.694;2023-02-22T00:32:09;35.00;;;12.70;;
77146;SDS011;66121;52.584;9.694;2023-02-22T00:34:34;30.90;;;11.93;;
77146;SDS011;66121;52.584;9.694;2023-02-22T00:36:59;34.70;;;13.30;;
77146;SDS011;66121;52.584;9.694;2023-02-22T00:39:27;32.33;;;12.73;;
77146;SDS011;66121;52.584;9.694;2023-02-22T00:41:53;29.40;;;12.33;;
77146;SDS011;66121;52.584;9.694;2023-02-22T00:44:18;36.80;;;13.60;;
77146;SDS011;66121;52.584;9.694;2023-02-22T00:46:43;36.40;;;15.17;;
77146;SDS011;66121;52.584;9.694;2023-02-22T00:49:08;39.53;;;15.67;;
77146;SDS011;66121;52.584;9.694;2023-02-22T00:51:34;36.83;;;14.60;;
77146;SDS011;66121;52.584;9.694;2023-02-22T00:53:59;34.93;;;13.63;;
77146;SDS011;66121;52.584;9.694;2023-02-22T00:56:25;31.05;;;13.02;;
77146;SDS011;66121;52.584;9.694;2023-02-22T00:58:50;37.72;;;14.07;;
77146;SDS011;66121;52.584;9.694;2023-02-22T01:01:15;32.17;;;12.70;;
77146;SDS011;66121;52.584;9.694;2023-02-22T01:03:41;34.17;;;13.60;;
77146;SDS011;66121;52.584;9.694;2023-02-22T01:06:06;30.50;;;12.23;;
77146;SDS011;66121;52.584;9.694;2023-02-22T01:08:32;28.20;;;12.38;;
77146;SDS011;66121;52.584;9.694;2023-02-22T01:10:57;27.15;;;11.25;;
77146;SDS011;66121;52.584;9.694;2023-02-22T01:13:22;28.98;;;12.32;;
77146;SDS011;66121;52.584;9.694;2023-02-22T01:15:47;28.97;;;11.57;;
77146;SDS011;66121;52.584;9.694;2023-02-22T01:18:15;26.65;;;11.75;;
77146;SDS011;66121;52.584;9.694;2023-02-22T01:20:41;28.67;;;11.95;;
77146;SDS011;66121;52.584;9.694;2023-02-22T01:23:11;28.08;;;12.93;;
77146;SDS011;66121;52.584;9.694;2023-02-22T01:25:36;31.75;;;13.85;;
77146;SDS011;66121;52.584;9.694;2023-02-22T01:28:03;29.83;;;13.35;;
77146;SDS011;66121;52.584;9.694;2023-02-22T01:30:31;35.30;;;13.05;;
77146;SDS011;66121;52.584;9.694;2023-02-22T01:32:58;36.97;;;12.63;;
77146;SDS011;66121;52.584;9.694;2023-02-22T01:35:26;31.08;;;11.50;;
77146;SDS011;66121;52.584;9.694;2023-02-22T01:37:53;29.55;;;12.95;;
77146;SDS011;66121;52.584;9.694;2023-02-22T01:40:22;29.10;;;12.05;;
77146;SDS011;66121;52.584;9.694;2023-02-22T01:42:56;28.60;;;12.00;;
77146;SDS011;66121;52.584;9.694;2023-02-22T01:48:05;30.73;;;13.40;;
77146;SDS011;66121;52.584;9.694;2023-02-22T01:50:34;29.83;;;12.05;;
77146;SDS011;66121;52.584;9.694;2023-02-22T01:53:03;36.58;;;12.70;;
77146;SDS011;66121;52.584;9.694;2023-02-22T01:55:30;34.65;;;13.45;;
77146;SDS011;66121;52.584;9.694;2023-02-22T01:57:58;30.75;;;12.15;;
77146;SDS011;66121;52.584;9.694;2023-02-22T02:00:23;33.67;;;13.25;;
77146;SDS011;66121;52.584;9.694;2023-02-22T02:02:58;28.73;;;11.77;;
77146;SDS011;66121;52.584;9.694;2023-02-22T02:05:30;32.08;;;12.60;;
77146;SDS011;66121;52.584;9.694;2023-02-22T02:07:58;32.47;;;13.55;;
77146;SDS011;66121;52.584;9.694;2023-02-22T02:10:29;36.30;;;14.85;;
77146;SDS011;66121;52.584;9.694;2023-02-22T02:12:56;31.83;;;12.35;;
77146;SDS011;66121;52.584;9.694;2023-02-22T02:15:24;29.73;;;12.35;;
77146;SDS011;66121;52.584;9.694;2023-02-22T02:17:56;27.92;;;11.50;;
77146;SDS011;66121;52.584;9.694;2023-02-22T02:28:56;31.77;;;11.98;;
77146;SDS011;66121;52.584;9.694;2023-02-22T02:34:33;29.73;;;11.90;;
77146;SDS011;66121;52.584;9.694;2023-02-22T02:40:19;33.05;;;13.48;;
77146;SDS011;66121;52.584;9.694;2023-02-22T02:42:50;39.85;;;14.75;;
77146;SDS011;66121;52.584;9.694;2023-02-22T02:45:28;34.13;;;12.45;;
77146;SDS011;66121;52.584;9.694;2023-02-22T02:48:08;31.63;;;12.38;;
77146;SDS011;66121;52.584;9.694;2023-02-22T02:50:37;35.47;;;13.93;;
77146;SDS011;66121;52.584;9.694;2023-02-22T02:53:07;37.63;;;13.52;;
77146;SDS011;66121;52.584;9.694;2023-02-22T02:55:33;32.67;;;13.10;;
77146;SDS011;66121;52.584;9.694;2023-02-22T02:58:02;35.10;;;13.52;;
77146;SDS011;66121;52.584;9.694;2023-02-22T03:00:32;35.28;;;13.95;;
77146;SDS011;66121;52.584;9.694;2023-02-22T03:11:34;37.00;;;14.23;;
77146;SDS011;66121;52.584;9.694;2023-02-22T03:14:20;41.30;;;14.32;;
77146;SDS011;66121;52.584;9.694;2023-02-22T03:17:00;43.60;;;14.43;;
77146;SDS011;66121;52.584;9.694;2023-02-22T03:19:42;44.05;;;15.88;;
77146;SDS011;66121;52.584;9.694;2023-02-22T03:22:34;52.22;;;17.75;;
77146;SDS011;66121;52.584;9.694;2023-02-22T03:27:39;41.80;;;16.48;;
77146;SDS011;66121;52.584;9.694;2023-02-22T03:30:25;41.85;;;14.75;;
77146;SDS011;66121;52.584;9.694;2023-02-22T03:32:58;42.55;;;17.13;;
77146;SDS011;66121;52.584;9.694;2023-02-22T03:35:27;38.63;;;14.65;;
77146;SDS011;66121;52.584;9.694;2023-02-22T03:37:58;36.17;;;14.18;;
77146;SDS011;66121;52.584;9.694;2023-02-22T03:40:30;41.90;;;14.52;;
77146;SDS011;66121;52.584;9.694;2023-02-22T03:43:07;37.03;;;13.95;;
77146;SDS011;66121;52.584;9.694;2023-02-22T03:45:38;41.75;;;14.48;;
77146;SDS011;66121;52.584;9.694;2023-02-22T03:48:13;38.33;;;14.05;;
77146;SDS011;66121;52.584;9.694;2023-02-22T03:50:44;40.33;;;14.23;;
77146;SDS011;66121;52.584;9.694;2023-02-22T03:53:10;35.35;;;13.85;;
77146;SDS011;66121;52.584;9.694;2023-02-22T03:55:35;38.20;;;13.05;;
77146;SDS011;66121;52.584;9.694;2023-02-22T03:58:02;39.38;;;14.45;;
77146;SDS011;66121;52.584;9.694;2023-02-22T04:00:31;38.50;;;13.85;;
77146;SDS011;66121;52.584;9.694;2023-02-22T04:02:58;38.97;;;13.70;;
77146;SDS011;66121;52.584;9.694;2023-02-22T04:05:23;38.83;;;14.20;;
77146;SDS011;66121;52.584;9.694;2023-02-22T04:07:51;36.63;;;14.50;;
77146;SDS011;66121;52.584;9.694;2023-02-22T04:10:17;34.83;;;13.52;;
77146;SDS011;66121;52.584;9.694;2023-02-22T04:12:42;38.20;;;14.25;;
77146;SDS011;66121;52.584;9.694;2023-02-22T04:15:08;36.75;;;13.77;;
77146;SDS011;66121;52.584;9.694;2023-02-22T04:17:36;33.83;;;14.05;;
77146;SDS011;66121;52.584;9.694;2023-02-22T04:20:01;41.43;;;13.90;;
77146;SDS011;66121;52.584;9.694;2023-02-22T04:22:27;38.33;;;14.07;;
77146;SDS011;66121;52.584;9.694;2023-02-22T04:24:53;40.13;;;14.32;;
77146;SDS011;66121;52.584;9.694;2023-02-22T04:27:18;42.20;;;13.90;;
77146;SDS011;66121;52.584;9.694;2023-02-22T04:29:43;39.13;;;12.70;;
77146;SDS011;66121;52.584;9.694;2023-02-22T04:32:09;37.55;;;12.82;;
77146;SDS011;66121;52.584;9.694;2023-02-22T04:34:34;41.77;;;13.43;;
77146;SDS011;66121;52.584;9.694;2023-02-22T04:36:59;39.53;;;13.17;;
77146;SDS011;66121;52.584;9.694;2023-02-22T04:39:25;20.67;;;9.57;;
77146;SDS011;66121;52.584;9.694;2023-02-22T04:41:50;25.27;;;11.07;;
77146;SDS011;66121;52.584;9.694;2023-02-22T04:44:15;29.38;;;10.98;;
77146;SDS011;66121;52.584;9.694;2023-02-22T04:46:41;28.25;;;11.50;;
77146;SDS011;66121;52.584;9.694;2023-02-22T04:49:06;24.00;;;10.52;;
77146;SDS011;66121;52.584;9.694;2023-02-22T04:51:31;28.80;;;11.13;;
77146;SDS011;66121;52.584;9.694;2023-02-22T04:53:57;30.10;;;11.50;;
77146;SDS011;66121;52.584;9.694;2023-02-22T04:56:22;33.72;;;12.85;;
77146;SDS011;66121;52.584;9.694;2023-02-22T04:58:48;30.90;;;12.02;;
77146;SDS011;66121;52.584;9.694;2023-02-22T05:01:14;31.33;;;11.70;;
77146;SDS011;66121;52.584;9.694;2023-02-22T05:03:40;31.55;;;11.18;;
77146;SDS011;66121;52.584;9.694;2023-02-22T05:06:05;35.70;;;12.32;;
77146;SDS011;66121;52.584;9.694;2023-02-22T05:08:31;29.13;;;10.82;;
77146;SDS011;66121;52.584;9.694;2023-02-22T05:10:56;32.33;;;11.60;;
77146;SDS011;66121;52.584;9.694;2023-02-22T05:13:21;31.73;;;11.33;;
77146;SDS011;66121;52.584;9.694;2023-02-22T05:15:47;32.13;;;11.10;;
77146;SDS011;66121;52.584;9.694;2023-02-22T05:18:12;24.67;;;10.17;;
77146;SDS011;66121;52.584;9.694;2023-02-22T05:20:38;32.85;;;11.82;;
77146;SDS011;66121;52.584;9.694;2023-02-22T05:23:04;27.17;;;10.13;;
77146;SDS011;66121;52.584;9.694;2023-02-22T05:25:29;31.33;;;10.67;;
77146;SDS011;66121;52.584;9.694;2023-02-22T05:27:56;39.15;;;13.15;;
77146;SDS011;66121;52.584;9.694;2023-02-22T05:30:31;64.50;;;27.73;;
77146;SDS011;66121;52.584;9.694;2023-02-22T05:32:58;33.25;;;12.32;;
77146;SDS011;66121;52.584;9.694;2023-02-22T05:35:25;107.70;;;45.95;;
77146;SDS011;66121;52.584;9.694;2023-02-22T05:37:51;148.18;;;64.93;;
77146;SDS011;66121;52.584;9.694;2023-02-22T05:40:21;125.72;;;57.80;;
77146;SDS011;66121;52.584;9.694;2023-02-22T05:42:48;93.15;;;42.90;;
77146;SDS011;66121;52.584;9.694;2023-02-22T05:45:16;46.03;;;18.27;;
77146;SDS011;66121;52.584;9.694;2023-02-22T05:47:42;43.63;;;18.58;;
77146;SDS011;66121;52.584;9.694;2023-02-22T05:50:08;31.90;;;13.48;;
77146;SDS011;66121;52.584;9.694;2023-02-22T05:52:34;32.03;;;13.55;;
77146;SDS011;66121;52.584;9.694;2023-02-22T05:54:59;26.67;;;11.03;;
77146;SDS011;66121;52.584;9.694;2023-02-22T05:57:24;60.80;;;14.53;;
77146;SDS011;66121;52.584;9.694;2023-02-22T05:59:50;27.00;;;10.73;;
77146;SDS011;66121;52.584;9.694;2023-02-22T06:02:15;36.13;;;13.48;;
77146;SDS011;66121;52.584;9.694;2023-02-22T06:04:43;26.93;;;11.13;;
77146;SDS011;66121;52.584;9.694;2023-02-22T06:07:09;40.47;;;13.88;;
77146;SDS011;66121;52.584;9.694;2023-02-22T06:09:34;40.58;;;13.13;;
77146;SDS011;66121;52.584;9.694;2023-02-22T06:12:00;44.08;;;14.88;;
77146;SDS011;66121;52.584;9.694;2023-02-22T06:14:25;47.60;;;15.85;;
77146;SDS011;66121;52.584;9.694;2023-02-22T06:16:52;43.67;;;13.40;;
77146;SDS011;66121;52.584;9.694;2023-02-22T06:19:18;43.50;;;14.82;;
77146;SDS011;66121;52.584;9.694;2023-02-22T06:21:50;40.28;;;13.75;;
77146;SDS011;66121;52.584;9.694;2023-02-22T06:24:20;43.10;;;16.63;;
77146;SDS011;66121;52.584;9.694;2023-02-22T06:26:46;46.20;;;15.68;;
77146;SDS011;66121;52.584;9.694;2023-02-22T06:29:11;40.10;;;13.80;;
77146;SDS011;66121;52.584;9.694;2023-02-22T06:31:37;46.17;;;14.32;;
77146;SDS011;66121;52.584;9.694;2023-02-22T06:34:02;43.80;;;13.67;;
77146;SDS011;66121;52.584;9.694;2023-02-22T06:36:28;40.85;;;14.27;;
77146;SDS011;66121;52.584;9.694;2023-02-22T06:38:56;40.77;;;14.67;;
77146;SDS011;66121;52.584;9.694;2023-02-22T06:41:22;41.72;;;15.07;;
77146;SDS011;66121;52.584;9.694;2023-02-22T06:43:48;47.50;;;15.15;;
77146;SDS011;66121;52.584;9.694;2023-02-22T06:46:13;38.55;;;14.73;;
77146;SDS011;66121;52.584;9.694;2023-02-22T06:48:39;44.63;;;15.77;;
77146;SDS011;66121;52.584;9.694;2023-02-22T06:51:07;48.20;;;15.43;;
77146;SDS011;66121;52.584;9.694;2023-02-22T06:53:34;54.10;;;16.65;;
77146;SDS011;66121;52.584;9.694;2023-02-22T06:55:59;48.03;;;15.68;;
77146;SDS011;66121;52.584;9.694;2023-02-22T06:58:26;49.67;;;15.90;;
77146;SDS011;66121;52.584;9.694;2023-02-22T07:00:51;52.33;;;14.70;;
77146;SDS011;66121;52.584;9.694;2023-02-22T07:03:17;43.95;;;13.57;;
77146;SDS011;66121;52.584;9.694;2023-02-22T07:05:42;50.58;;;14.38;;
77146;SDS011;66121;52.584;9.694;2023-02-22T07:08:07;46.53;;;12.57;;
77146;SDS011;66121;52.584;9.694;2023-02-22T07:10:33;48.13;;;14.53;;
77146;SDS011;66121;52.584;9.694;2023-02-22T07:13:00;50.15;;;15.35;;
77146;SDS011;66121;52.584;9.694;2023-02-22T07:15:26;44.25;;;14.35;;
77146;SDS011;66121;52.584;9.694;2023-02-22T07:17:53;51.72;;;16.52;;
77146;SDS011;66121;52.584;9.694;2023-02-22T07:20:19;53.28;;;16.23;;
77146;SDS011;66121;52.584;9.694;2023-02-22T07:22:46;57.72;;;15.32;;
77146;SDS011;66121;52.584;9.694;2023-02-22T07:25:12;68.00;;;16.70;;
77146;SDS011;66121;52.584;9.694;2023-02-22T07:27:38;69.35;;;19.20;;
77146;SDS011;66121;52.584;9.694;2023-02-22T07:30:05;68.43;;;17.92;;
77146;SDS011;66121;52.584;9.694;2023-02-22T07:32:32;56.58;;;17.20;;
77146;SDS011;66121;52.584;9.694;2023-02-22T07:34:58;56.22;;;16.50;;
77146;SDS011;66121;52.584;9.694;2023-02-22T07:37:25;61.72;;;18.45;;
77146;SDS011;66121;52.584;9.694;2023-02-22T07:39:51;65.57;;;17.17;;
77146;SDS011;66121;52.584;9.694;2023-02-22T07:42:16;56.13;;;16.53;;
77146;SDS011;66121;52.584;9.694;2023-02-22T07:44:41;54.07;;;15.63;;
77146;SDS011;66121;52.584;9.694;2023-02-22T07:47:07;53.25;;;16.35;;
77146;SDS011;66121;52.584;9.694;2023-02-22T07:49:34;52.00;;;15.70;;
77146;SDS011;66121;52.584;9.694;2023-02-22T07:52:00;48.78;;;14.30;;
77146;SDS011;66121;52.584;9.694;2023-02-22T07:54:25;47.53;;;14.17;;
77146;SDS011;66121;52.584;9.694;2023-02-22T07:56:51;51.43;;;15.90;;
77146;SDS011;66121;52.584;9.694;2023-02-22T07:59:16;43.07;;;14.67;;
77146;SDS011;66121;52.584;9.694;2023-02-22T08:01:41;46.40;;;14.60;;
77146;SDS011;66121;52.584;9.694;2023-02-22T08:04:07;43.97;;;15.15;;
77146;SDS011;66121;52.584;9.694;2023-02-22T08:06:32;46.60;;;14.95;;
77146;SDS011;66121;52.584;9.694;2023-02-22T08:08:58;43.03;;;15.50;;
77146;SDS011;66121;52.584;9.694;2023-02-22T08:11:24;41.60;;;13.75;;
77146;SDS011;66121;52.584;9.694;2023-02-22T08:13:50;43.45;;;13.93;;
77146;SDS011;66121;52.584;9.694;2023-02-22T08:16:16;42.50;;;14.93;;
77146;SDS011;66121;52.584;9.694;2023-02-22T08:18:41;44.38;;;14.88;;
77146;SDS011;66121;52.584;9.694;2023-02-22T08:21:06;43.17;;;15.93;;
77146;SDS011;66121;52.584;9.694;2023-02-22T08:23:32;36.33;;;12.55;;
77146;SDS011;66121;52.584;9.694;2023-02-22T08:26:04;43.97;;;14.60;;
77146;SDS011;66121;52.584;9.694;2023-02-22T08:28:34;39.40;;;12.60;;
77146;SDS011;66121;52.584;9.694;2023-02-22T08:30:59;33.38;;;12.93;;
77146;SDS011;66121;52.584;9.694;2023-02-22T08:33:25;33.80;;;13.33;;
77146;SDS011;66121;52.584;9.694;2023-02-22T08:35:50;34.67;;;11.90;;
77146;SDS011;66121;52.584;9.694;2023-02-22T08:38:17;34.28;;;12.48;;
77146;SDS011;66121;52.584;9.694;2023-02-22T08:40:51;31.48;;;11.52;;
77146;SDS011;66121;52.584;9.694;2023-02-22T08:43:17;35.55;;;13.13;;
77146;SDS011;66121;52.584;9.694;2023-02-22T08:45:43;38.20;;;12.65;;
77146;SDS011;66121;52.584;9.694;2023-02-22T08:48:09;32.83;;;11.20;;
77146;SDS011;66121;52.584;9.694;2023-02-22T08:50:35;34.50;;;13.18;;
77146;SDS011;66121;52.584;9.694;2023-02-22T08:53:03;37.78;;;12.77;;
77146;SDS011;66121;52.584;9.694;2023-02-22T08:55:30;36.80;;;12.02;;
77146;SDS011;66121;52.584;9.694;2023-02-22T08:58:01;37.00;;;11.95;;
77146;SDS011;66121;52.584;9.694;2023-02-22T09:00:28;33.08;;;11.80;;
77146;SDS011;66121;52.584;9.694;2023-02-22T09:02:57;33.88;;;11.75;;
77146;SDS011;66121;52.584;9.694;2023-02-22T09:05:25;31.60;;;12.05;;
77146;SDS011;66121;52.584;9.694;2023-02-22T09:07:50;28.23;;;11.07;;
77146;SDS011;66121;52.584;9.694;2023-02-22T09:10:17;36.63;;;12.30;;
77146;SDS011;66121;52.584;9.694;2023-02-22T09:12:45;25.10;;;10.65;;
77146;SDS011;66121;52.584;9.694;2023-02-22T09:15:11;30.27;;;11.27;;
77146;SDS011;66121;52.584;9.694;2023-02-22T09:17:36;34.17;;;12.15;;
77146;SDS011;66121;52.584;9.694;2023-02-22T09:20:05;31.08;;;12.10;;
77146;SDS011;66121;52.584;9.694;2023-02-22T09:22:32;29.38;;;10.73;;
77146;SDS011;66121;52.584;9.694;2023-02-22T09:24:57;28.88;;;11.88;;
77146;SDS011;66121;52.584;9.694;2023-02-22T09:27:23;30.23;;;12.15;;
77146;SDS011;66121;52.584;9.694;2023-02-22T09:29:48;24.40;;;11.03;;
77146;SDS011;66121;52.584;9.694;2023-02-22T09:32:13;25.27;;;11.25;;
77146;SDS011;66121;52.584;9.694;2023-02-22T09:34:42;24.20;;;10.60;;
77146;SDS011;66121;52.584;9.694;2023-02-22T09:37:11;23.55;;;10.55;;
77146;SDS011;66121;52.584;9.694;2023-02-22T09:39:37;29.58;;;11.90;;
77146;SDS011;66121;52.584;9.694;2023-02-22T09:42:46;25.48;;;10.30;;
77146;SDS011;66121;52.584;9.694;2023-02-22T09:47:57;25.27;;;11.57;;
77146;SDS011;66121;52.584;9.694;2023-02-22T09:50:30;29.55;;;11.95;;
77146;SDS011;66121;52.584;9.694;2023-02-22T09:53:16;28.40;;;12.32;;
77146;SDS011;66121;52.584;9.694;2023-02-22T09:56:07;24.40;;;10.98;;
77146;SDS011;66121;52.584;9.694;2023-02-22T09:58:39;26.52;;;11.77;;
77146;SDS011;66121;52.584;9.694;2023-02-22T10:01:16;25.77;;;12.27;;
77146;SDS011;66121;52.584;9.694;2023-02-22T10:03:48;29.83;;;11.85;;
77146;SDS011;66121;52.584;9.694;2023-02-22T10:06:34;26.95;;;12.07;;
77146;SDS011;66121;52.584;9.694;2023-02-22T10:09:02;31.52;;;12.20;;
77146;SDS011;66121;52.584;9.694;2023-02-22T10:25:44;31.52;;;12.43;;
77146;SDS011;66121;52.584;9.694;2023-02-22T10:28:23;26.38;;;10.30;;
77146;SDS011;66121;52.584;9.694;2023-02-22T10:30:59;25.27;;;11.38;;
77146;SDS011;66121;52.584;9.694;2023-02-22T10:33:33;26.45;;;12.82;;
77146;SDS011;66121;52.584;9.694;2023-02-22T10:36:04;23.85;;;11.32;;
77146;SDS011;66121;52.584;9.694;2023-02-22T10:38:32;25.90;;;11.65;;
77146;SDS011;66121;52.584;9.694;2023-02-22T10:43:32;26.42;;;11.35;;
77146;SDS011;66121;52.584;9.694;2023-02-22T10:45:59;24.80;;;10.80;;
77146;SDS011;66121;52.584;9.694;2023-02-22T10:48:28;27.80;;;11.27;;
77146;SDS011;66121;52.584;9.694;2023-02-22T10:50:57;23.75;;;10.23;;
77146;SDS011;66121;52.584;9.694;2023-02-22T10:53:26;27.08;;;11.52;;
77146;SDS011;66121;52.584;9.694;2023-02-22T10:56:05;25.15;;;12.13;;
77146;SDS011;66121;52.584;9.694;2023-02-22T10:58:54;24.90;;;11.05;;
77146;SDS011;66121;52.584;9.694;2023-02-22T11:04:02;26.33;;;11.80;;
77146;SDS011;66121;52.584;9.694;2023-02-22T11:06:33;22.63;;;10.88;;
77146;SDS011;66121;52.584;9.694;2023-02-22T11:09:03;24.30;;;11.10;;
77146;SDS011;66121;52.584;9.694;2023-02-22T11:11:36;24.73;;;11.10;;
77146;SDS011;66121;52.584;9.694;2023-02-22T11:14:03;25.08;;;11.68;;
77146;SDS011;66121;52.584;9.694;2023-02-22T11:16:31;24.63;;;12.45;;
77146;SDS011;66121;52.584;9.694;2023-02-22T11:19:07;23.30;;;11.70;;
77146;SDS011;66121;52.584;9.694;2023-02-22T11:21:41;21.23;;;11.60;;
77146;SDS011;66121;52.584;9.694;2023-02-22T11:24:10;24.65;;;12.18;;
77146;SDS011;66121;52.584;9.694;2023-02-22T11:26:48;25.40;;;11.20;;
77146;SDS011;66121;52.584;9.694;2023-02-22T11:29:28;22.30;;;11.85;;
77146;SDS011;66121;52.584;9.694;2023-02-22T11:31:57;23.20;;;11.05;;
77146;SDS011;66121;52.584;9.694;2023-02-22T11:40:06;24.02;;;11.43;;
77146;SDS011;66121;52.584;9.694;2023-02-22T11:42:46;25.23;;;11.98;;
77146;SDS011;66121;52.584;9.694;2023-02-22T11:45:20;27.17;;;11.52;;
77146;SDS011;66121;52.584;9.694;2023-02-22T11:48:02;24.60;;;11.25;;
77146;SDS011;66121;52.584;9.694;2023-02-22T11:50:31;24.92;;;11.65;;
77146;SDS011;66121;52.584;9.694;2023-02-22T11:53:08;21.63;;;11.45;;
77146;SDS011;66121;52.584;9.694;2023-02-22T11:58:40;27.17;;;12.63;;
77146;SDS011;66121;52.584;9.694;2023-02-22T12:12:36;21.95;;;11.90;;
77146;SDS011;66121;52.584;9.694;2023-02-22T12:18:12;22.95;;;12.00;;
77146;SDS011;66121;52.584;9.694;2023-02-22T12:20:46;23.88;;;12.13;;
77146;SDS011;66121;52.584;9.694;2023-02-22T12:23:21;23.35;;;11.75;;
77146;SDS011;66121;52.584;9.694;2023-02-22T12:25:58;25.27;;;12.25;;
77146;SDS011;66121;52.584;9.694;2023-02-22T12:28:37;24.73;;;10.73;;
77146;SDS011;66121;52.584;9.694;2023-02-22T12:31:24;25.10;;;12.77;;
77146;SDS011;66121;52.584;9.694;2023-02-22T12:34:32;24.42;;;12.07;;
77146;SDS011;66121;52.584;9.694;2023-02-22T12:37:08;22.83;;;11.32;;
77146;SDS011;66121;52.584;9.694;2023-02-22T12:50:58;24.48;;;12.48;;
77146;SDS011;66121;52.584;9.694;2023-02-22T12:53:32;25.67;;;12.35;;
77146;SDS011;66121;52.584;9.694;2023-02-22T12:58:45;25.38;;;13.02;;
77146;SDS011;66121;52.584;9.694;2023-02-22T13:01:22;22.83;;;11.55;;
77146;SDS011;66121;52.584;9.694;2023-02-22T13:03:54;25.45;;;12.25;;
77146;SDS011;66121;52.584;9.694;2023-02-22T13:06:25;24.23;;;11.77;;
77146;SDS011;66121;52.584;9.694;2023-02-22T13:19:58;25.10;;;11.73;;
77146;SDS011;66121;52.584;9.694;2023-02-22T13:33:22;24.20;;;11.43;;
77146;SDS011;66121;52.584;9.694;2023-02-22T13:42:03;15.75;;;10.18;;
77146;SDS011;66121;52.584;9.694;2023-02-22T13:50:56;19.15;;;9.25;;
77146;SDS011;66121;52.584;9.694;2023-02-22T13:53:11;19.05;;;9.40;;
77146;SDS011;66121;52.584;9.694;2023-02-22T13:55:40;18.95;;;10.07;;
77146;SDS011;66121;52.584;9.694;2023-02-22T13:58:11;16.33;;;8.98;;
77146;SDS011;66121;52.584;9.694;2023-02-22T14:10:51;26.23;;;9.93;;
77146;SDS011;66121;52.584;9.694;2023-02-22T14:13:19;15.02;;;8.15;;
77146;SDS011;66121;52.584;9.694;2023-02-22T14:23:43;14.52;;;7.07;;
77146;SDS011;66121;52.584;9.694;2023-02-22T14:31:24;15.00;;;7.90;;
77146;SDS011;66121;52.584;9.694;2023-02-22T14:36:27;14.80;;;7.95;;
77146;SDS011;66121;52.584;9.694;2023-02-22T14:38:58;16.17;;;8.10;;
77146;SDS011;66121;52.584;9.694;2023-02-22T14:41:35;19.20;;;8.88;;
77146;SDS011;66121;52.584;9.694;2023-02-22T14:44:01;13.93;;;7.95;;
77146;SDS011;66121;52.584;9.694;2023-02-22T14:46:30;17.63;;;8.32;;
77146;SDS011;66121;52.584;9.694;2023-02-22T14:49:01;16.70;;;8.63;;
77146;SDS011;66121;52.584;9.694;2023-02-22T14:51:37;14.85;;;7.60;;
77146;SDS011;66121;52.584;9.694;2023-02-22T14:59:20;16.33;;;8.13;;
77146;SDS011;66121;52.584;9.694;2023-02-22T15:01:49;14.75;;;7.40;;
77146;SDS011;66121;52.584;9.694;2023-02-22T15:04:29;16.77;;;7.25;;
77146;SDS011;66121;52.584;9.694;2023-02-22T15:06:55;15.70;;;7.90;;
77146;SDS011;66121;52.584;9.694;2023-02-22T15:09:26;15.95;;;8.07;;
77146;SDS011;66121;52.584;9.694;2023-02-22T15:11:54;16.17;;;7.57;;
77146;SDS011;66121;52.584;9.694;2023-02-22T15:14:37;13.68;;;7.45;;
77146;SDS011;66121;52.584;9.694;2023-02-22T15:17:26;14.30;;;7.32;;
77146;SDS011;66121;52.584;9.694;2023-02-22T15:19:51;12.63;;;6.90;;
77146;SDS011;66121;52.584;9.694;2023-02-22T15:22:21;15.52;;;7.80;;
77146;SDS011;66121;52.584;9.694;2023-02-22T15:24:56;15.35;;;9.07;;
77146;SDS011;66121;52.584;9.694;2023-02-22T15:27:23;15.90;;;8.20;;
77146;SDS011;66121;52.584;9.694;2023-02-22T15:29:49;15.07;;;7.18;;
77146;SDS011;66121;52.584;9.694;2023-02-22T15:32:36;12.05;;;7.68;;
77146;SDS011;66121;52.584;9.694;2023-02-22T15:37:59;13.73;;;7.22;;
77146;SDS011;66121;52.584;9.694;2023-02-22T15:40:37;18.88;;;6.78;;
77146;SDS011;66121;52.584;9.694;2023-02-22T15:43:07;13.30;;;6.53;;
77146;SDS011;66121;52.584;9.694;2023-02-22T15:45:41;11.30;;;6.03;;
77146;SDS011;66121;52.584;9.694;2023-02-22T15:48:10;14.43;;;7.53;;
77146;SDS011;66121;52.584;9.694;2023-02-22T15:50:36;18.27;;;8.75;;
77146;SDS011;66121;52.584;9.694;2023-02-22T15:55:32;17.92;;;7.05;;
77146;SDS011;66121;52.584;9.694;2023-02-22T15:58:06;14.75;;;7.13;;
77146;SDS011;66121;52.584;9.694;2023-02-22T16:00:35;12.65;;;7.07;;
77146;SDS011;66121;52.584;9.694;2023-02-22T16:03:03;14.27;;;7.45;;
77146;SDS011;66121;52.584;9.694;2023-02-22T16:05:53;14.13;;;7.20;;
77146;SDS011;66121;52.584;9.694;2023-02-22T16:08:21;12.88;;;6.43;;
77146;SDS011;66121;52.584;9.694;2023-02-22T16:13:27;16.83;;;7.45;;
77146;SDS011;66121;52.584;9.694;2023-02-22T16:18:27;12.18;;;6.47;;
77146;SDS011;66121;52.584;9.694;2023-02-22T16:23:41;12.82;;;7.10;;
77146;SDS011;66121;52.584;9.694;2023-02-22T16:26:30;13.05;;;7.15;;
77146;SDS011;66121;52.584;9.694;2023-02-22T16:28:58;16.85;;;7.93;;
77146;SDS011;66121;52.584;9.694;2023-02-22T16:31:25;17.55;;;9.77;;
77146;SDS011;66121;52.584;9.694;2023-02-22T16:33:52;16.20;;;9.85;;
77146;SDS011;66121;52.584;9.694;2023-02-22T16:36:19;28.02;;;15.15;;
77146;SDS011;66121;52.584;9.694;2023-02-22T16:38:46;48.00;;;29.55;;
77146;SDS011;66121;52.584;9.694;2023-02-22T16:41:13;27.63;;;17.08;;
77146;SDS011;66121;52.584;9.694;2023-02-22T16:43:43;18.60;;;10.15;;
77146;SDS011;66121;52.584;9.694;2023-02-22T16:46:11;20.10;;;11.00;;
77146;SDS011;66121;52.584;9.694;2023-02-22T16:48:36;102.57;;;34.88;;
77146;SDS011;66121;52.584;9.694;2023-02-22T16:51:11;206.93;;;57.95;;
77146;SDS011;66121;52.584;9.694;2023-02-22T16:56:10;21.83;;;9.60;;
77146;SDS011;66121;52.584;9.694;2023-02-22T16:58:40;13.95;;;7.30;;
77146;SDS011;66121;52.584;9.694;2023-02-22T17:01:06;30.13;;;10.45;;
77146;SDS011;66121;52.584;9.694;2023-02-22T17:03:32;16.48;;;7.25;;
77146;SDS011;66121;52.584;9.694;2023-02-22T17:05:57;31.48;;;11.27;;
77146;SDS011;66121;52.584;9.694;2023-02-22T17:08:22;113.47;;;30.83;;
77146;SDS011;66121;52.584;9.694;2023-02-22T17:10:48;104.73;;;29.83;;
77146;SDS011;66121;52.584;9.694;2023-02-22T17:13:15;46.10;;;17.70;;
77146;SDS011;66121;52.584;9.694;2023-02-22T17:15:44;25.77;;;10.65;;
77146;SDS011;66121;52.584;9.694;2023-02-22T17:18:13;38.20;;;15.90;;
77146;SDS011;66121;52.584;9.694;2023-02-22T17:20:40;35.90;;;15.30;;
77146;SDS011;66121;52.584;9.694;2023-02-22T17:23:07;26.88;;;12.40;;